Etusivu
METAR-TAF:

METAR-TAF

Lentoasemat :

Bordj Badji Mokhtar, Algeria

Leveyspiiri: 21-22-30N, Pituuspiiri: 000-55-26E, korkeus merenpinnasta: 396 m

Tämänhetkinen sää

Tämä raportti tehtiin 56 minuuttia sitten, kello 12.00 UTC
Tuuli 6 kn luoteesta
Lämpötila 40°C
Kosteus 16%
Ilmanpaine 1013 hPa
Näkyvyys: 0450 m
hiekkaa

METAR: DATM 251200Z 31006KT 0450 SA NSC 40/09 Q1013

Aika: 13:56 (12:56 UTC)

Sääennuste

Tämä raportti tehtiin 4 tuntia ja 56 minuuttia sitten, kello 08.00 UTC
Ennuste voimassa 25. päivästä klo 09 UTC - 25. päivään klo 18 UTC
Tuuli 10 kn lounaasta
Näkyvyys: 1500 m
hiekkaa
Ajoittain
25. päivästä klo 09 UTC - 25. päivään klo 11 UTC
Näkyvyys: 0800 m
Tulossa
25. päivästä klo 11 UTC - 25. päivään klo 13 UTC
Näkyvyys: 3000 m
Tulossa
25. päivästä klo 13 UTC - 25. päivään klo 15 UTC
Tuuli 8 kn pohjoisesta/koillisesta
Näkyvyys: 7000 m

TAF: DATM 250800Z 2509/2518 23010KT 1500 SA NSC TEMPO 2509/2511 0800 BECMG 2511/2513 3000 BECMG 2513/2515 03008KT 7000 NSW

Säähavainnot ja -ennusteet yli 4000 lentoasemalta (METAR- ja TAF-raportit).

Käytössä olevat sääasemat on merkitty karttaan keltaisilla ja punaisilla pisteillä.

Aseta hiiri pisteen päälle nähdäksesi sääaseman nimen.

Klikkaa sitten nähdäksesi säähavainnot ja -ennusteet.

Kartan vaihtaminen: klikkaa mustalla rastilla varustettuja vihreitä pisteitä, niin voit zoomata sisään; viivalla varustettua vihreää pistettä, niin voit zoomata ulos tai vihreitä nuolia, niin pääset viereisille kartoille.


METAR-TAF: